createdAt,value
2022-10-24T00:01:20.344Z,14.05
2022-10-24T00:02:52.185Z,14.57
2022-10-24T00:04:23.842Z,11.48
2022-10-24T00:05:55.485Z,12.75
2022-10-24T00:07:27.268Z,13.43
2022-10-24T00:08:58.877Z,15.30
2022-10-24T00:10:30.538Z,15.32
2022-10-24T00:12:04.216Z,12.13
2022-10-24T00:13:35.973Z,12.35
2022-10-24T00:15:09.854Z,13.80
2022-10-24T00:16:41.469Z,15.30
2022-10-24T00:18:13.505Z,17.35
2022-10-24T00:19:45.107Z,13.85
2022-10-24T00:21:16.932Z,15.23
2022-10-24T00:22:48.571Z,14.10
2022-10-24T00:24:20.202Z,16.30
2022-10-24T00:25:51.918Z,11.38
2022-10-24T00:27:23.998Z,12.07
2022-10-24T00:28:55.729Z,12.15
2022-10-24T00:30:28.965Z,13.27
2022-10-24T00:32:00.574Z,14.10
2022-10-24T00:33:32.612Z,11.77
2022-10-24T00:35:05.252Z,11.65
2022-10-24T00:36:36.973Z,13.43
2022-10-24T00:38:08.613Z,16.15
2022-10-24T00:39:40.225Z,12.10
2022-10-24T00:41:15.053Z,12.82
2022-10-24T00:42:47.370Z,12.52
2022-10-24T00:44:23.135Z,11.10
2022-10-24T00:45:58.523Z,14.63
2022-10-24T00:47:30.135Z,13.27
2022-10-24T00:49:01.971Z,13.00
2022-10-24T00:50:33.750Z,14.52
2022-10-24T00:52:09.454Z,16.35
2022-10-24T00:53:44.367Z,13.00
2022-10-24T00:55:16.151Z,12.75
2022-10-24T00:57:02.667Z,13.63
2022-10-24T00:58:36.864Z,12.00
2022-10-24T01:00:13.055Z,11.73
2022-10-24T01:01:47.322Z,11.32
2022-10-24T01:03:19.252Z,12.50
2022-10-24T01:04:50.930Z,16.05
2022-10-24T01:06:37.908Z,12.13
2022-10-24T01:08:19.556Z,14.18
2022-10-24T01:10:08.247Z,10.48
2022-10-24T01:11:56.100Z,14.23
2022-10-24T01:13:39.183Z,12.20
2022-10-24T01:15:18.041Z,12.23
2022-10-24T01:16:54.493Z,12.10
2022-10-24T01:18:31.235Z,11.20
2022-10-24T01:20:26.874Z,10.82
2022-10-24T01:22:03.328Z,13.40
2022-10-24T01:24:04.689Z,12.00
2022-10-24T01:25:47.006Z,12.32
2022-10-24T01:27:38.168Z,12.20
2022-10-24T01:29:18.253Z,13.98
2022-10-24T01:30:57.294Z,14.27
2022-10-24T01:32:36.004Z,14.10
2022-10-24T01:34:14.408Z,13.55
2022-10-24T01:35:52.691Z,11.95
2022-10-24T01:37:31.479Z,13.35
2022-10-24T01:39:10.953Z,14.80
2022-10-24T01:40:50.721Z,13.43
2022-10-24T01:44:02.434Z,13.25
2022-10-24T01:45:38.257Z,14.48
2022-10-24T01:47:17.033Z,13.80
2022-10-24T01:48:55.427Z,15.60
2022-10-24T01:50:29.231Z,14.23
2022-10-24T01:52:04.172Z,12.68
2022-10-24T01:53:36.721Z,13.13
2022-10-24T01:55:10.222Z,14.18
2022-10-24T01:56:41.931Z,13.82
2022-10-24T01:58:13.558Z,11.63
2022-10-24T01:59:47.972Z,16.13
2022-10-24T02:01:24.188Z,11.45
2022-10-24T02:03:00.995Z,13.48
2022-10-24T02:04:35.908Z,14.77
2022-10-24T02:06:11.813Z,11.38
2022-10-24T02:07:48.462Z,12.57
2022-10-24T02:09:21.373Z,16.02
2022-10-24T02:10:57.300Z,14.80
2022-10-24T02:12:30.054Z,11.35
2022-10-24T02:14:06.980Z,17.50
2022-10-24T02:15:44.783Z,13.20
2022-10-24T02:17:17.300Z,12.48
2022-10-24T02:18:52.904Z,12.15
2022-10-24T02:20:29.220Z,11.98
2022-10-24T02:22:06.532Z,13.80
2022-10-24T02:23:44.675Z,14.68
2022-10-24T02:25:22.071Z,13.90
2022-10-24T02:26:58.320Z,12.88
2022-10-24T02:28:34.840Z,11.35
2022-10-24T02:30:10.941Z,11.57
2022-10-24T02:31:47.049Z,12.85
2022-10-24T02:33:19.168Z,14.23
2022-10-24T02:34:52.461Z,10.50
2022-10-24T02:36:28.529Z,10.18
2022-10-24T02:38:04.661Z,13.52
2022-10-24T02:39:38.061Z,10.45
2022-10-24T02:41:15.070Z,14.02
2022-10-24T02:42:49.505Z,15.63
2022-10-24T02:44:22.841Z,16.27
2022-10-24T02:45:56.854Z,10.65
2022-10-24T02:47:29.564Z,12.20
2022-10-24T02:49:03.227Z,14.60
2022-10-24T02:50:37.809Z,11.98
2022-10-24T02:52:09.665Z,11.23
2022-10-24T02:53:41.561Z,11.73
2022-10-24T02:55:13.185Z,14.38
2022-10-24T02:56:49.497Z,10.90
2022-10-24T02:58:21.586Z,11.77
2022-10-24T02:59:53.658Z,11.07
2022-10-24T03:01:25.419Z,11.82
2022-10-24T03:02:57.192Z,12.70
2022-10-24T03:04:28.837Z,11.80
2022-10-24T03:06:01.887Z,15.85
2022-10-24T03:07:33.513Z,11.85
2022-10-24T03:09:05.131Z,9.85
2022-10-24T03:10:36.740Z,9.23
2022-10-24T03:12:08.512Z,11.15
2022-10-24T03:13:41.512Z,12.65
2022-10-24T03:15:13.621Z,13.25
2022-10-24T03:16:45.224Z,9.60
2022-10-24T03:18:16.816Z,14.20
2022-10-24T03:19:48.483Z,13.95
2022-10-24T03:21:21.614Z,11.63
2022-10-24T03:22:53.210Z,14.25
2022-10-24T03:24:36.941Z,11.05
2022-10-24T03:26:16.549Z,13.30
2022-10-24T03:27:48.267Z,14.40
2022-10-24T03:29:20.021Z,13.43
2022-10-24T03:30:53.154Z,12.95
2022-10-24T03:34:01.344Z,10.23
2022-10-24T03:35:33.040Z,11.65
2022-10-24T03:37:05.997Z,11.05
2022-10-24T03:38:37.583Z,11.13
2022-10-24T03:40:10.052Z,11.88
2022-10-24T03:41:41.647Z,11.98
2022-10-24T03:43:13.428Z,11.85
2022-10-24T03:44:45.018Z,12.13
2022-10-24T03:46:16.633Z,11.95
2022-10-24T03:47:48.221Z,12.52
2022-10-24T03:49:19.803Z,14.57
2022-10-24T03:50:51.493Z,12.63
2022-10-24T03:52:24.441Z,13.43
2022-10-24T03:53:56.012Z,12.98
2022-10-24T03:55:28.554Z,11.27
2022-10-24T03:57:00.212Z,11.98
2022-10-24T03:58:31.828Z,11.13
2022-10-24T04:00:04.414Z,9.30
2022-10-24T04:01:38.117Z,10.95
2022-10-24T04:03:10.728Z,12.63
2022-10-24T04:04:42.314Z,11.80
2022-10-24T04:06:14.011Z,14.95
2022-10-24T04:07:47.317Z,14.02
2022-10-24T04:09:19.163Z,12.10
2022-10-24T04:10:50.850Z,10.90
2022-10-24T04:12:22.440Z,11.30
2022-10-24T04:13:54.374Z,15.43
2022-10-24T04:15:26.068Z,9.52
2022-10-24T04:16:57.857Z,9.32
2022-10-24T04:18:29.531Z,13.57
2022-10-24T04:20:01.290Z,14.73
2022-10-24T04:21:32.939Z,11.80
2022-10-24T04:23:08.333Z,11.05
2022-10-24T04:24:40.050Z,10.48
2022-10-24T04:26:14.698Z,13.18
2022-10-24T04:27:46.636Z,9.23
2022-10-24T04:29:18.273Z,10.73
2022-10-24T04:30:54.702Z,12.80
2022-10-24T04:32:26.608Z,10.90
2022-10-24T04:33:58.250Z,11.27
2022-10-24T04:35:29.926Z,10.43
2022-10-24T04:37:01.651Z,14.00
2022-10-24T04:38:34.695Z,14.60
2022-10-24T04:40:07.616Z,10.65
2022-10-24T04:41:39.237Z,13.30
2022-10-24T04:43:10.941Z,13.43
2022-10-24T04:44:42.521Z,11.77
2022-10-24T04:46:14.214Z,13.85
2022-10-24T04:47:46.294Z,13.07
2022-10-24T04:49:18.460Z,12.48
2022-10-24T04:50:50.313Z,14.88
2022-10-24T04:52:21.994Z,10.13
2022-10-24T04:53:55.189Z,11.75
2022-10-24T04:55:26.948Z,11.23
2022-10-24T04:56:58.652Z,13.20
2022-10-24T04:58:30.297Z,12.77
2022-10-24T05:00:02.071Z,10.88
2022-10-24T05:01:33.846Z,10.55
2022-10-24T05:03:05.532Z,14.25
2022-10-24T05:04:37.182Z,15.02
2022-10-24T05:06:09.017Z,12.23
2022-10-24T05:07:40.657Z,10.90
2022-10-24T05:09:14.448Z,10.85
2022-10-24T05:10:46.165Z,14.20
2022-10-24T05:13:54.501Z,12.63
2022-10-24T05:15:26.274Z,12.13
2022-10-24T05:16:57.877Z,12.95
2022-10-24T05:18:29.442Z,13.60
2022-10-24T05:20:01.036Z,14.20
2022-10-24T05:21:33.795Z,10.30
2022-10-24T05:23:05.516Z,12.90
2022-10-24T05:24:38.943Z,13.13
2022-10-24T05:26:10.577Z,13.55
2022-10-24T05:27:42.211Z,12.30
2022-10-24T05:29:13.838Z,14.13
2022-10-24T05:30:45.720Z,17.55
2022-10-24T05:32:17.661Z,12.50
2022-10-24T05:33:49.310Z,11.48
2022-10-24T05:35:20.972Z,10.25
2022-10-24T05:36:52.647Z,14.27
2022-10-24T05:38:24.404Z,11.38
2022-10-24T05:39:57.390Z,12.90
2022-10-24T05:41:29.058Z,9.70
2022-10-24T05:43:00.635Z,11.02
2022-10-24T05:44:32.802Z,11.63
2022-10-24T05:46:04.734Z,9.43
2022-10-24T05:47:36.726Z,9.30
2022-10-24T05:49:08.309Z,11.07
2022-10-24T05:50:39.966Z,12.25
2022-10-24T05:52:11.620Z,11.32
2022-10-24T05:53:43.313Z,11.05
2022-10-24T05:55:18.092Z,9.95
2022-10-24T05:56:50.192Z,11.07
2022-10-24T05:58:22.375Z,9.70
2022-10-24T05:59:54.023Z,9.07
2022-10-24T06:01:25.798Z,12.48
2022-10-24T06:02:57.464Z,11.90
2022-10-24T06:04:29.068Z,9.43
2022-10-24T06:06:04.124Z,9.15
2022-10-24T06:07:36.129Z,8.55
2022-10-24T06:09:08.195Z,11.77
2022-10-24T06:10:41.353Z,8.00
2022-10-24T06:12:13.405Z,13.15
2022-10-24T06:13:45.051Z,12.20
2022-10-24T06:15:16.765Z,9.13
2022-10-24T06:16:48.414Z,11.70
2022-10-24T06:18:20.075Z,14.93
2022-10-24T06:19:51.855Z,8.60
2022-10-24T06:21:24.868Z,7.72
2022-10-24T06:22:56.553Z,8.30
2022-10-24T06:24:28.240Z,9.88
2022-10-24T06:26:01.471Z,8.07
2022-10-24T06:27:33.172Z,9.95
2022-10-24T06:29:04.783Z,8.23
2022-10-24T06:30:36.591Z,9.27
2022-10-24T06:32:08.458Z,11.73
2022-10-24T06:33:40.469Z,9.68
2022-10-24T06:35:14.636Z,9.50
2022-10-24T06:36:46.298Z,8.88
2022-10-24T06:38:17.946Z,10.63
2022-10-24T06:39:49.699Z,9.23
2022-10-24T06:41:22.640Z,10.05
2022-10-24T06:42:54.332Z,9.70
2022-10-24T06:44:26.171Z,8.82
2022-10-24T06:45:57.828Z,9.23
2022-10-24T06:47:30.980Z,10.55
2022-10-24T06:49:02.685Z,14.07
2022-10-24T06:50:34.579Z,9.32
2022-10-24T06:52:06.276Z,6.82
2022-10-24T06:53:37.898Z,11.20
2022-10-24T06:55:09.870Z,9.80
2022-10-24T06:56:43.161Z,10.65
2022-10-24T06:58:15.907Z,11.80
2022-10-24T06:59:47.537Z,9.27
2022-10-24T07:01:21.931Z,9.48
2022-10-24T07:02:53.717Z,6.80
2022-10-24T07:04:25.468Z,11.02
2022-10-24T07:05:57.096Z,13.52
2022-10-24T07:07:28.934Z,11.88
2022-10-24T07:09:02.317Z,9.82
2022-10-24T07:10:33.997Z,14.50
2022-10-24T07:12:07.475Z,9.20
2022-10-24T07:13:39.301Z,10.05
2022-10-24T07:15:11.297Z,14.38
2022-10-24T07:16:42.944Z,9.45
2022-10-24T07:18:16.155Z,9.60
2022-10-24T07:19:52.329Z,8.80
2022-10-24T07:21:26.730Z,6.97
2022-10-24T07:22:58.425Z,7.93
2022-10-24T07:24:30.111Z,10.23
2022-10-24T07:26:03.757Z,9.20
2022-10-24T07:27:36.820Z,10.02
2022-10-24T07:29:08.469Z,11.50
2022-10-24T07:30:40.213Z,9.35
2022-10-24T07:32:11.894Z,11.85
2022-10-24T07:33:43.574Z,9.13
2022-10-24T07:35:15.518Z,8.73
2022-10-24T07:36:47.141Z,11.25
2022-10-24T07:38:18.943Z,6.60
2022-10-24T07:39:50.868Z,7.88
2022-10-24T07:41:24.326Z,9.93
2022-10-24T07:42:57.325Z,12.73
2022-10-24T07:44:29.025Z,9.98
2022-10-24T07:47:33.988Z,11.38
2022-10-24T07:49:05.694Z,11.50
2022-10-24T07:50:43.224Z,9.80
2022-10-24T07:52:14.838Z,10.45
2022-10-24T07:53:46.620Z,11.65
2022-10-24T07:55:18.268Z,7.65
2022-10-24T07:56:49.883Z,6.90
2022-10-24T07:58:22.842Z,7.60
2022-10-24T07:59:54.502Z,7.90
2022-10-24T08:01:26.407Z,8.77
2022-10-24T08:02:58.821Z,9.68
2022-10-24T08:04:30.432Z,9.50
2022-10-24T08:06:05.541Z,9.15
2022-10-24T08:07:38.024Z,11.25
2022-10-24T08:09:09.622Z,8.68
2022-10-24T08:10:41.260Z,9.77
2022-10-24T08:12:13.336Z,10.40
2022-10-24T08:13:46.342Z,11.52
2022-10-24T08:15:18.097Z,10.50
2022-10-24T08:16:49.750Z,12.00
2022-10-24T08:18:21.349Z,9.30
2022-10-24T08:19:54.153Z,15.45
2022-10-24T08:21:26.360Z,6.63
2022-10-24T08:22:58.002Z,9.88
2022-10-24T08:24:29.649Z,9.75
2022-10-24T08:26:04.612Z,11.70
2022-10-24T08:27:36.331Z,11.27
2022-10-24T08:29:11.624Z,9.50
2022-10-24T08:30:43.228Z,13.18
2022-10-24T08:32:14.895Z,10.20
2022-10-24T08:33:46.855Z,10.88
2022-10-24T08:35:19.746Z,8.63
2022-10-24T08:36:51.489Z,9.77
2022-10-24T08:38:23.152Z,11.35
2022-10-24T08:39:55.706Z,9.38
2022-10-24T08:41:32.285Z,9.98
2022-10-24T08:43:03.895Z,9.60
2022-10-24T08:44:40.103Z,9.88
2022-10-24T08:46:27.133Z,10.77
2022-10-24T08:48:06.524Z,9.57
2022-10-24T08:49:46.391Z,7.95
2022-10-24T08:51:34.471Z,9.35
2022-10-24T08:53:10.922Z,8.25
2022-10-24T08:54:44.805Z,9.55
2022-10-24T08:56:16.503Z,9.90
2022-10-24T08:57:52.226Z,8.38
2022-10-24T08:59:26.844Z,9.77
2022-10-24T09:01:02.302Z,7.18
2022-10-24T09:02:38.146Z,8.80
2022-10-24T09:04:13.972Z,12.80
2022-10-24T09:05:49.133Z,14.93
2022-10-24T09:07:22.203Z,9.68
2022-10-24T09:08:56.356Z,12.15
2022-10-24T09:10:38.247Z,9.55
2022-10-24T09:12:13.886Z,9.23
2022-10-24T09:13:45.501Z,13.43
2022-10-24T09:15:22.329Z,12.80
2022-10-24T09:17:00.282Z,10.15
2022-10-24T09:18:36.197Z,11.73
2022-10-24T09:20:21.454Z,12.32
2022-10-24T09:21:54.564Z,10.30
2022-10-24T09:23:26.815Z,9.50
2022-10-24T09:25:01.743Z,10.55
2022-10-24T09:26:35.404Z,11.93
2022-10-24T09:28:07.145Z,7.82
2022-10-24T09:29:38.928Z,9.85
2022-10-24T09:31:17.041Z,11.55
2022-10-24T09:32:50.394Z,12.23
2022-10-24T09:34:22.008Z,9.00
2022-10-24T09:35:56.298Z,8.93
2022-10-24T09:37:37.726Z,11.18
2022-10-24T09:39:27.320Z,8.75
2022-10-24T09:41:02.429Z,10.60
2022-10-24T09:42:34.757Z,9.07
2022-10-24T09:44:30.618Z,10.88
2022-10-24T09:46:05.357Z,11.73
2022-10-24T09:47:39.722Z,11.98
2022-10-24T09:49:22.496Z,12.85
2022-10-24T09:50:55.830Z,11.45
2022-10-24T09:52:29.460Z,9.77
2022-10-24T09:54:23.657Z,9.77
2022-10-24T09:55:58.304Z,9.23
2022-10-24T09:57:38.648Z,9.32
2022-10-24T09:59:26.464Z,13.18
2022-10-24T10:01:02.075Z,6.07
2022-10-24T10:02:34.815Z,9.80
2022-10-24T10:04:10.078Z,13.30
2022-10-24T10:05:46.671Z,10.65
2022-10-24T10:07:25.398Z,9.68
2022-10-24T10:08:59.465Z,14.15
2022-10-24T10:10:34.225Z,9.80
2022-10-24T10:12:06.169Z,9.48
2022-10-24T10:13:45.838Z,12.38
2022-10-24T10:15:24.445Z,10.25
2022-10-24T10:17:01.227Z,11.88
2022-10-24T10:18:42.175Z,10.13
2022-10-24T10:20:24.750Z,14.15
2022-10-24T10:22:00.528Z,10.82
2022-10-24T10:23:34.880Z,12.45
2022-10-24T10:25:27.570Z,14.45
2022-10-24T10:26:59.188Z,9.90
2022-10-24T10:28:34.754Z,9.25
2022-10-24T10:30:10.140Z,9.63
2022-10-24T10:31:44.269Z,10.30
2022-10-24T10:33:23.731Z,13.68
2022-10-24T10:35:04.503Z,13.05
2022-10-24T10:36:44.231Z,13.07
2022-10-24T10:40:13.085Z,10.10
2022-10-24T10:41:49.054Z,10.60
2022-10-24T10:43:30.504Z,8.73
2022-10-24T10:45:16.692Z,9.02
2022-10-24T10:47:01.958Z,9.13
2022-10-24T10:48:47.144Z,12.25
2022-10-24T10:50:28.638Z,10.65
2022-10-24T10:52:06.237Z,10.55
2022-10-24T10:53:47.690Z,9.15
2022-10-24T10:55:31.549Z,11.85
2022-10-24T10:57:08.068Z,11.38
2022-10-24T10:58:48.804Z,11.95
2022-10-24T11:00:23.201Z,12.05
2022-10-24T11:02:03.727Z,13.48
2022-10-24T11:03:43.623Z,12.30
2022-10-24T11:07:02.213Z,13.80
2022-10-24T11:09:07.588Z,10.68
2022-10-24T11:10:46.082Z,13.00
2022-10-24T11:12:22.109Z,13.60
2022-10-24T11:13:59.116Z,11.35
2022-10-24T11:15:35.170Z,12.60
2022-10-24T11:17:16.870Z,13.80
2022-10-24T11:18:52.407Z,12.90
2022-10-24T11:20:29.321Z,14.27
2022-10-24T11:22:04.956Z,11.10
2022-10-24T11:23:41.073Z,11.73
2022-10-24T11:25:23.235Z,14.38
2022-10-24T11:27:03.189Z,15.40
2022-10-24T11:28:41.459Z,11.60
2022-10-24T11:30:16.233Z,12.90
2022-10-24T11:31:53.445Z,13.38
2022-10-24T11:33:29.225Z,10.27
2022-10-24T11:35:10.369Z,13.73
2022-10-24T11:36:45.705Z,10.75
2022-10-24T11:38:24.047Z,13.43
2022-10-24T11:39:59.565Z,12.15
2022-10-24T11:41:40.085Z,9.27
2022-10-24T11:43:19.773Z,11.70
2022-10-24T11:44:55.886Z,10.80
2022-10-24T11:46:34.349Z,13.73
2022-10-24T11:48:14.282Z,9.93
2022-10-24T11:49:52.404Z,14.50
2022-10-24T11:51:30.035Z,12.18
2022-10-24T11:53:06.045Z,12.68
2022-10-24T11:54:43.832Z,12.60
2022-10-24T11:56:22.369Z,11.52
2022-10-24T11:57:59.344Z,11.32
2022-10-24T11:59:32.348Z,13.18
2022-10-24T12:01:18.816Z,12.82
2022-10-24T12:03:21.452Z,10.32
2022-10-24T12:05:31.264Z,12.45
2022-10-24T12:09:11.371Z,13.30
2022-10-24T12:11:07.992Z,10.65
2022-10-24T12:13:07.792Z,14.55
2022-10-24T12:15:07.971Z,11.02
2022-10-24T12:16:55.350Z,10.85
2022-10-24T12:18:30.985Z,10.30
2022-10-24T12:20:07.079Z,13.20
2022-10-24T12:21:44.645Z,12.45
2022-10-24T12:23:21.593Z,11.80
2022-10-24T12:25:05.059Z,13.32
2022-10-24T12:26:36.851Z,12.45
2022-10-24T12:28:20.907Z,10.30
2022-10-24T12:30:04.061Z,9.40
2022-10-24T12:31:37.657Z,9.35
2022-10-24T12:33:24.282Z,12.85
2022-10-24T12:37:33.360Z,14.00
2022-10-24T12:39:05.054Z,9.50
2022-10-24T12:40:52.179Z,8.98
2022-10-24T12:42:57.405Z,11.23
2022-10-24T12:44:41.411Z,14.35
2022-10-24T12:46:50.533Z,10.75
2022-10-24T12:48:32.451Z,9.70
2022-10-24T12:50:37.643Z,11.20
2022-10-24T12:52:49.709Z,10.63
2022-10-24T12:54:40.334Z,13.65
2022-10-24T12:56:15.640Z,11.50
2022-10-24T12:57:47.707Z,10.20
2022-10-24T12:59:21.823Z,9.73
2022-10-24T13:00:56.039Z,10.75
2022-10-24T13:03:02.968Z,12.73
2022-10-24T13:04:59.613Z,9.38
2022-10-24T13:06:45.512Z,9.32
2022-10-24T13:08:35.534Z,10.57
2022-10-24T13:10:23.845Z,12.90
2022-10-24T13:12:07.455Z,12.27
2022-10-24T13:13:54.131Z,8.32
2022-10-24T13:15:35.170Z,11.90
2022-10-24T13:17:12.940Z,9.18
2022-10-24T13:18:57.251Z,10.55
2022-10-24T13:20:36.291Z,9.35
2022-10-24T13:22:27.782Z,13.02
2022-10-24T13:24:12.130Z,8.98
2022-10-24T13:25:44.275Z,11.07
2022-10-24T13:27:29.485Z,11.18
2022-10-24T13:29:01.249Z,11.85
2022-10-24T13:30:33.155Z,11.77
2022-10-24T13:32:24.554Z,8.85
2022-10-24T13:34:27.399Z,10.88
2022-10-24T13:36:16.325Z,8.80
2022-10-24T13:37:51.158Z,9.77
2022-10-24T13:39:26.653Z,13.50
2022-10-24T13:40:58.647Z,10.52
2022-10-24T13:42:36.417Z,11.18
2022-10-24T13:44:21.817Z,11.95
2022-10-24T13:45:57.682Z,10.02
2022-10-24T13:47:33.601Z,11.07
2022-10-24T13:49:06.307Z,11.50
2022-10-24T13:50:45.985Z,9.25
2022-10-24T13:52:24.856Z,8.15
2022-10-24T13:54:01.082Z,11.20
2022-10-24T13:55:37.111Z,12.05
2022-10-24T13:57:23.318Z,9.15
2022-10-24T13:58:54.956Z,13.50
2022-10-24T14:00:28.746Z,10.60
2022-10-24T14:02:04.550Z,11.07
2022-10-24T14:03:37.561Z,10.07
2022-10-24T14:05:22.979Z,10.50
2022-10-24T14:07:00.946Z,9.77
2022-10-24T14:08:36.643Z,11.45
2022-10-24T14:10:11.729Z,11.27
2022-10-24T14:11:46.239Z,12.02
2022-10-24T14:13:19.731Z,11.40
2022-10-24T14:14:52.882Z,9.48
2022-10-24T14:16:27.541Z,9.98
2022-10-24T14:18:01.327Z,10.25
2022-10-24T14:19:36.218Z,9.02
2022-10-24T14:21:17.754Z,7.60
2022-10-24T14:22:49.467Z,10.38
2022-10-24T14:24:23.054Z,11.65
2022-10-24T14:25:57.947Z,12.60
2022-10-24T14:27:30.157Z,10.52
2022-10-24T14:29:01.853Z,11.00
2022-10-24T14:30:34.981Z,12.65
2022-10-24T14:32:13.962Z,10.95
2022-10-24T14:33:51.208Z,11.45
2022-10-24T14:35:23.753Z,12.55
2022-10-24T14:37:00.995Z,13.80
2022-10-24T14:38:33.929Z,11.30
2022-10-24T14:40:15.781Z,12.25
2022-10-24T14:41:47.565Z,9.45
2022-10-24T14:43:23.989Z,11.32
2022-10-24T14:44:58.420Z,10.00
2022-10-24T14:46:35.629Z,10.60
2022-10-24T14:48:16.471Z,15.05
2022-10-24T14:49:49.612Z,13.93
2022-10-24T14:51:26.814Z,9.75
2022-10-24T14:53:00.478Z,12.77
2022-10-24T14:54:33.359Z,13.73
2022-10-24T14:56:17.852Z,8.90
2022-10-24T14:57:52.006Z,10.95
2022-10-24T14:59:26.106Z,10.48
2022-10-24T15:00:58.991Z,12.77
2022-10-24T15:02:32.928Z,11.88
2022-10-24T15:04:05.814Z,9.82
2022-10-24T15:05:39.537Z,9.52
2022-10-24T15:07:27.134Z,12.90
2022-10-24T15:09:05.329Z,13.10
2022-10-24T15:10:39.517Z,10.27
2022-10-24T15:12:12.730Z,12.15
2022-10-24T15:13:48.196Z,10.98
2022-10-24T15:15:34.518Z,11.00
2022-10-24T15:17:29.783Z,11.48
2022-10-24T15:19:06.044Z,13.30
2022-10-24T15:20:40.365Z,10.70
2022-10-24T15:22:26.817Z,12.55
2022-10-24T15:24:00.782Z,10.98
2022-10-24T15:25:37.907Z,13.93
2022-10-24T15:29:05.504Z,10.52
2022-10-24T15:30:38.372Z,10.38
2022-10-24T15:32:11.199Z,15.50
2022-10-24T15:33:43.062Z,11.40
2022-10-24T15:35:15.577Z,12.77
2022-10-24T15:36:49.281Z,9.20
2022-10-24T15:38:20.940Z,10.70
2022-10-24T15:39:53.459Z,11.15
2022-10-24T15:41:27.040Z,10.38
2022-10-24T15:43:00.654Z,12.50
2022-10-24T15:44:32.577Z,9.07
2022-10-24T15:46:04.294Z,12.55
2022-10-24T15:47:35.949Z,8.73
2022-10-24T15:49:07.676Z,11.63
2022-10-24T15:50:45.459Z,13.25
2022-10-24T15:52:17.436Z,15.50
2022-10-24T15:53:50.311Z,12.65
2022-10-24T15:55:23.925Z,12.73
2022-10-24T15:56:55.756Z,11.07
2022-10-24T15:58:28.769Z,10.98
2022-10-24T16:00:00.497Z,13.25
2022-10-24T16:01:38.401Z,14.95
2022-10-24T16:03:15.437Z,12.40
2022-10-24T16:04:47.228Z,10.73
2022-10-24T16:06:20.264Z,11.38
2022-10-24T16:07:52.274Z,11.15
2022-10-24T16:09:27.498Z,13.30
2022-10-24T16:10:59.188Z,11.70
2022-10-24T16:12:30.804Z,14.57
2022-10-24T16:14:04.307Z,11.15
2022-10-24T16:15:38.555Z,14.10
2022-10-24T16:17:10.156Z,10.85
2022-10-24T16:18:41.805Z,11.32
2022-10-24T16:20:14.049Z,14.38
2022-10-24T16:21:45.813Z,14.30
2022-10-24T16:23:17.570Z,14.50
2022-10-24T16:24:49.221Z,14.73
2022-10-24T16:26:20.849Z,12.57
2022-10-24T16:27:52.709Z,9.98
2022-10-24T16:29:25.757Z,9.40
2022-10-24T16:30:57.387Z,12.77
2022-10-24T16:32:29.007Z,10.65
2022-10-24T16:34:00.748Z,12.90
2022-10-24T16:35:35.003Z,15.68
2022-10-24T16:37:06.650Z,11.35
2022-10-24T16:38:38.469Z,11.75
2022-10-24T16:40:11.942Z,15.00
2022-10-24T16:41:46.153Z,8.73
2022-10-24T16:43:19.607Z,12.32
2022-10-24T16:44:52.751Z,6.75
2022-10-24T16:46:26.901Z,14.15
2022-10-24T16:47:58.617Z,12.40
2022-10-24T16:49:33.615Z,13.20
2022-10-24T16:51:09.432Z,9.98
2022-10-24T16:52:41.120Z,11.70
2022-10-24T16:54:12.771Z,12.05
2022-10-24T16:55:47.882Z,12.23
2022-10-24T16:57:20.100Z,10.30
2022-10-24T16:58:51.794Z,10.75
2022-10-24T17:00:25.539Z,11.73
2022-10-24T17:01:57.479Z,11.35
2022-10-24T17:03:29.527Z,10.90
2022-10-24T17:05:01.188Z,12.25
2022-10-24T17:06:32.975Z,12.35
2022-10-24T17:08:05.056Z,13.40
2022-10-24T17:09:36.921Z,14.07
2022-10-24T17:11:32.294Z,12.30
2022-10-24T17:13:02.928Z,13.35
2022-10-24T17:14:36.712Z,12.52
2022-10-24T17:16:10.795Z,13.73
2022-10-24T17:17:42.591Z,11.18
2022-10-24T17:19:16.944Z,12.10
2022-10-24T17:20:50.048Z,11.65
2022-10-24T17:22:22.350Z,12.57
2022-10-24T17:23:54.926Z,10.05
2022-10-24T17:25:27.791Z,14.13
2022-10-24T17:26:59.613Z,8.05
2022-10-24T17:28:33.233Z,14.50
2022-10-24T17:30:07.308Z,27.98
2022-10-24T17:31:40.507Z,22.92
2022-10-24T17:33:14.316Z,35.75
2022-10-24T17:34:50.087Z,23.38
2022-10-24T17:36:28.696Z,19.67
2022-10-24T17:38:14.932Z,15.30
2022-10-24T17:39:50.069Z,17.00
2022-10-24T17:41:24.698Z,19.58
2022-10-24T17:42:57.006Z,44.95
2022-10-24T17:44:29.210Z,64.30
2022-10-24T17:46:01.265Z,14.27
2022-10-24T17:47:34.373Z,14.45
2022-10-24T17:49:08.051Z,13.30
2022-10-24T17:50:39.856Z,13.82
2022-10-24T17:52:12.944Z,11.73
2022-10-24T17:53:45.665Z,14.07
2022-10-24T17:55:34.322Z,12.27
2022-10-24T17:57:13.372Z,10.68
2022-10-24T17:58:46.664Z,10.98
2022-10-24T18:00:19.584Z,9.75
2022-10-24T18:01:53.479Z,12.32
2022-10-24T18:03:28.707Z,11.15
2022-10-24T18:05:00.585Z,21.55
2022-10-24T18:06:32.937Z,15.40
2022-10-24T18:08:05.389Z,13.00
2022-10-24T18:09:39.940Z,12.73
2022-10-24T18:11:12.817Z,15.05
2022-10-24T18:12:44.703Z,12.45
2022-10-24T18:14:16.360Z,8.50
2022-10-24T18:15:48.146Z,10.77
2022-10-24T18:17:19.847Z,9.93
2022-10-24T18:18:53.123Z,12.25
2022-10-24T18:20:25.802Z,19.08
2022-10-24T18:21:57.481Z,19.67
2022-10-24T18:23:29.137Z,12.90
2022-10-24T18:25:00.981Z,14.90
2022-10-24T18:26:32.621Z,16.73
2022-10-24T18:28:04.504Z,12.75
2022-10-24T18:29:36.305Z,10.45
2022-10-24T18:31:09.703Z,12.13
2022-10-24T18:32:41.375Z,12.48
2022-10-24T18:34:14.440Z,12.20
2022-10-24T18:35:46.128Z,11.57
2022-10-24T18:37:18.021Z,16.13
2022-10-24T18:38:50.387Z,8.90
2022-10-24T18:40:23.166Z,12.20
2022-10-24T18:41:59.005Z,10.23
2022-10-24T18:43:31.014Z,12.65
2022-10-24T18:45:04.154Z,17.63
2022-10-24T18:46:38.446Z,14.23
2022-10-24T18:48:10.876Z,15.20
2022-10-24T18:49:44.686Z,14.40
2022-10-24T18:51:34.979Z,15.30
2022-10-24T18:53:10.613Z,17.35
2022-10-24T18:54:51.224Z,15.30
2022-10-24T18:56:23.411Z,16.33
2022-10-24T18:57:55.660Z,16.92
2022-10-24T18:59:27.877Z,17.17
2022-10-24T19:00:59.967Z,20.27
2022-10-24T19:02:37.370Z,17.75
2022-10-24T19:04:17.660Z,21.20
2022-10-24T19:05:56.836Z,18.02
2022-10-24T19:07:30.638Z,13.88
2022-10-24T19:09:02.577Z,19.30
2022-10-24T19:10:34.485Z,19.05
2022-10-24T19:12:07.078Z,16.75
2022-10-24T19:13:38.961Z,20.67
2022-10-24T19:15:12.114Z,19.80
2022-10-24T19:16:45.860Z,18.75
2022-10-24T19:18:18.372Z,17.58
2022-10-24T19:19:51.261Z,16.88
2022-10-24T19:21:26.166Z,18.40
2022-10-24T19:22:58.658Z,17.77
2022-10-24T19:24:30.582Z,25.23
2022-10-24T19:26:02.661Z,19.85
2022-10-24T19:27:34.403Z,20.58
2022-10-24T19:29:06.192Z,22.48
2022-10-24T19:30:42.175Z,22.40
2022-10-24T19:32:13.861Z,20.10
2022-10-24T19:33:45.593Z,22.45
2022-10-24T19:35:18.776Z,21.20
2022-10-24T19:36:51.877Z,26.48
2022-10-24T19:38:24.418Z,23.85
2022-10-24T19:39:56.048Z,24.77
2022-10-24T19:41:28.125Z,23.63
2022-10-24T19:42:59.879Z,18.27
2022-10-24T19:44:31.492Z,20.23
2022-10-24T19:46:19.252Z,20.10
2022-10-24T19:47:54.062Z,20.20
2022-10-24T19:49:25.706Z,19.63
2022-10-24T19:51:01.948Z,19.15
2022-10-24T19:52:34.950Z,22.75
2022-10-24T19:54:06.582Z,22.63
2022-10-24T19:55:38.963Z,22.95
2022-10-24T19:57:10.682Z,26.67
2022-10-24T19:58:43.487Z,16.38
2022-10-24T20:00:15.523Z,15.43
2022-10-24T20:01:47.460Z,20.98
2022-10-24T20:03:19.189Z,16.67
2022-10-24T20:04:50.818Z,17.53
2022-10-24T20:06:24.036Z,16.40
2022-10-24T20:07:57.324Z,23.45
2022-10-24T20:09:28.912Z,19.63
2022-10-24T20:11:00.983Z,19.38
2022-10-24T20:12:32.713Z,19.20
2022-10-24T20:14:04.361Z,19.83
2022-10-24T20:15:35.958Z,19.25
2022-10-24T20:17:07.576Z,15.75
2022-10-24T20:20:13.657Z,18.27
2022-10-24T20:21:45.550Z,15.93
2022-10-24T20:23:19.435Z,17.70
2022-10-24T20:24:51.102Z,21.00
2022-10-24T20:26:24.932Z,16.55
2022-10-24T20:27:56.573Z,15.45
2022-10-24T20:29:28.395Z,18.35
2022-10-24T20:31:00.265Z,16.15
2022-10-24T20:32:31.931Z,14.05
2022-10-24T20:34:09.559Z,16.33
2022-10-24T20:35:41.224Z,17.55
2022-10-24T20:37:12.845Z,20.90
2022-10-24T20:38:45.881Z,16.70
2022-10-24T20:40:17.541Z,20.65
2022-10-24T20:41:51.914Z,16.20
2022-10-24T20:43:25.782Z,14.85
2022-10-24T20:44:57.403Z,14.20
2022-10-24T20:46:29.128Z,18.58
2022-10-24T20:48:01.061Z,17.00
2022-10-24T20:49:32.770Z,13.80
2022-10-24T20:51:06.935Z,16.33
2022-10-24T20:52:38.558Z,17.05